createdAt,value
2023-03-23T15:58:48.446Z,17.53
2023-03-23T16:04:01.614Z,18.34
2023-03-23T16:09:04.665Z,20.15
2023-03-23T16:14:06.465Z,19.04
2023-03-23T16:19:11.334Z,19.62
2023-03-23T16:24:13.252Z,18.33
2023-03-23T16:29:33.785Z,18.43
2023-03-23T16:34:38.959Z,19.17
2023-03-23T16:39:40.728Z,17.76
2023-03-23T16:44:42.491Z,18.14
2023-03-23T16:49:44.288Z,18.09
2023-03-23T16:54:46.148Z,18.08
2023-03-23T16:59:47.881Z,17.69
2023-03-23T17:04:49.500Z,17.77
2023-03-23T17:09:51.565Z,17.78
2023-03-23T17:14:53.215Z,18.06
2023-03-23T17:19:55.073Z,18.48
2023-03-23T17:24:57.485Z,19.06
2023-03-23T17:29:59.382Z,18.51
2023-03-23T17:35:01.821Z,18.25
2023-03-23T17:40:04.879Z,17.03
2023-03-23T17:45:08.548Z,16.70
2023-03-23T17:50:12.771Z,15.84
2023-03-23T17:55:14.518Z,15.96
2023-03-23T18:00:16.923Z,15.50
2023-03-23T18:05:18.685Z,15.20
2023-03-23T18:10:20.589Z,17.04
2023-03-23T18:15:22.574Z,16.67
2023-03-23T18:20:31.577Z,16.60
2023-03-23T18:25:33.656Z,16.93
2023-03-23T18:30:35.682Z,16.53
2023-03-23T18:35:37.301Z,16.35
2023-03-23T18:40:46.466Z,16.67
2023-03-23T18:45:53.029Z,15.98
2023-03-23T18:50:56.327Z,16.26
2023-03-23T18:56:18.374Z,15.81
2023-03-23T19:01:20.343Z,14.33
2023-03-23T19:06:25.374Z,16.44
2023-03-23T19:11:27.328Z,15.80
2023-03-23T19:16:31.172Z,16.64
2023-03-23T19:21:32.933Z,16.25
2023-03-23T19:26:38.316Z,15.25
2023-03-23T19:31:40.281Z,15.00
2023-03-23T19:36:42.252Z,15.07
2023-03-23T19:41:51.062Z,15.02
2023-03-23T19:46:54.000Z,14.04
2023-03-23T19:52:08.780Z,15.72
2023-03-23T19:57:14.069Z,15.59
2023-03-23T20:02:16.013Z,16.01
2023-03-23T20:07:17.642Z,17.02
2023-03-23T20:12:19.281Z,16.52
2023-03-23T20:17:20.907Z,15.69
2023-03-23T20:22:22.673Z,15.16
2023-03-23T20:27:24.225Z,14.59
2023-03-23T20:32:26.135Z,15.46
2023-03-23T20:37:30.524Z,16.05
2023-03-23T20:42:36.741Z,15.69
2023-03-23T20:47:39.036Z,16.25
2023-03-23T20:52:41.090Z,15.20
2023-03-23T20:57:43.290Z,15.08
2023-03-23T21:02:45.024Z,16.56
2023-03-23T21:07:48.813Z,16.21
2023-03-23T21:28:46.728Z,15.92
2023-03-23T21:33:48.668Z,15.91
2023-03-23T21:38:51.176Z,17.32
2023-03-23T21:43:52.788Z,17.99
2023-03-23T21:48:54.593Z,17.12
2023-03-23T21:53:56.952Z,17.92
2023-03-23T21:58:58.735Z,17.47
2023-03-23T22:04:00.586Z,17.20
2023-03-23T22:09:05.308Z,16.92
2023-03-23T22:14:07.626Z,18.87
2023-03-23T22:19:09.416Z,18.65
2023-03-23T22:24:11.408Z,16.69
2023-03-23T22:29:14.920Z,16.29
2023-03-23T22:34:16.811Z,17.61
2023-03-23T22:39:18.702Z,17.63
2023-03-23T22:44:20.626Z,15.34
2023-03-23T22:49:22.591Z,16.09
2023-03-23T22:54:24.689Z,16.92
2023-03-23T22:59:26.735Z,16.05
2023-03-23T23:04:30.080Z,15.23
2023-03-23T23:09:31.853Z,16.37
2023-03-23T23:14:33.653Z,18.00
2023-03-23T23:19:36.676Z,18.43
2023-03-23T23:24:38.363Z,18.98
2023-03-23T23:29:40.668Z,18.54
2023-03-23T23:34:42.577Z,16.87
2023-03-23T23:39:44.470Z,16.63
2023-03-23T23:44:46.600Z,16.53
2023-03-23T23:49:48.927Z,18.52
2023-03-23T23:54:51.582Z,15.62
2023-03-23T23:59:53.349Z,15.95
